Time;durP1;ratioP1;P1;durP2;ratioP2;P2;SDS_P1;SDS_P2;PMS_P1;PMS_P2;Temp;Humidity;BMP_temperature;BMP_pressure;BME280_temperature;BME280_humidity;BME280_pressure;Samples;Min_cycle;Max_cycle;Signal;HPM_P1;HPM_P2
2021/03/15 00:05:46;;;;;;;3.65;2.30;;;;;;;;;;4800281;28;20121;-60
2021/03/15 00:08:12;;;;;;;6.32;2.30;;;;;;;;;;4182803;34;20126;-56
2021/03/15 00:10:38;;;;;;;3.60;2.42;;;;;;;;;;4182995;34;20455;-55
2021/03/15 00:13:04;;;;;;;7.75;2.70;;;;;;;;;;4177034;34;20129;-55
2021/03/15 00:15:30;;;;;;;4.43;3.20;;;;;;;;;;4177213;34;20137;-56
2021/03/15 00:17:56;;;;;;;3.80;2.37;;;;;;;;;;4177252;34;20125;-55
2021/03/15 00:20:22;;;;;;;4.18;2.72;;;;;;;;;;4164467;34;20198;-55
2021/03/15 00:22:48;;;;;;;4.55;2.58;;;;;;;;;;4176669;34;20090;-56
2021/03/15 00:25:14;;;;;;;5.10;2.42;;;;;;;;;;4164575;34;20463;-53
2021/03/15 00:27:41;;;;;;;3.42;2.70;;;;;;;;;;4177076;34;20093;-52
2021/03/15 00:30:08;;;;;;;3.53;2.50;;;;;;;;;;4177304;34;20121;-54
2021/03/15 00:32:34;;;;;;;4.07;2.72;;;;;;;;;;4176898;34;20478;-56
2021/03/15 00:35:00;;;;;;;3.97;2.30;;;;;;;;;;4177050;34;20609;-55
2021/03/15 00:37:27;;;;;;;2.92;2.30;;;;;;;;;;4175589;34;20114;-54
2021/03/15 00:39:53;;;;;;;3.45;2.58;;;;;;;;;;4177166;34;20133;-55
2021/03/15 00:42:19;;;;;;;3.05;2.50;;;;;;;;;;4176907;34;20134;-54
2021/03/15 00:44:45;;;;;;;7.15;2.80;;;;;;;;;;4175975;34;20195;-55
2021/03/15 00:47:11;;;;;;;4.47;2.70;;;;;;;;;;4177085;34;20098;-55
2021/03/15 00:49:37;;;;;;;3.45;2.80;;;;;;;;;;4177056;34;20548;-55
2021/03/15 00:52:03;;;;;;;5.80;2.90;;;;;;;;;;4178550;34;20150;-53
2021/03/15 00:54:29;;;;;;;4.05;3.03;;;;;;;;;;4177049;34;20121;-54
2021/03/15 00:56:55;;;;;;;4.82;2.45;;;;;;;;;;4176983;34;20116;-55
2021/03/15 00:59:21;;;;;;;5.75;2.53;;;;;;;;;;4176947;34;20115;-55
2021/03/15 01:01:47;;;;;;;6.85;2.95;;;;;;;;;;4176640;34;20133;-53
2021/03/15 01:04:13;;;;;;;4.68;3.17;;;;;;;;;;4176817;34;20105;-52
2021/03/15 01:06:41;;;;;;;7.25;3.17;;;;;;;;;;4176725;34;20134;-56
2021/03/15 01:09:07;;;;;;;6.97;2.40;;;;;;;;;;4177201;34;20485;-53
2021/03/15 01:11:32;;;;;;;5.53;2.90;;;;;;;;;;4176656;34;20113;-54
2021/03/15 01:13:58;;;;;;;5.30;2.87;;;;;;;;;;4179033;34;20126;-56
2021/03/15 01:16:24;;;;;;;7.07;2.80;;;;;;;;;;4178781;34;20190;-55
2021/03/15 01:18:50;;;;;;;4.22;2.60;;;;;;;;;;4178981;34;20276;-57
2021/03/15 01:21:16;;;;;;;3.65;2.70;;;;;;;;;;4178641;34;20221;-54
2021/03/15 01:23:42;;;;;;;4.12;2.55;;;;;;;;;;4178805;34;20101;-53
2021/03/15 01:26:08;;;;;;;3.80;2.80;;;;;;;;;;4178508;34;20114;-54
2021/03/15 01:28:34;;;;;;;4.10;2.80;;;;;;;;;;4179129;34;20117;-54
2021/03/15 01:31:00;;;;;;;4.97;3.08;;;;;;;;;;4178613;34;20629;-55
2021/03/15 01:33:26;;;;;;;8.57;3.30;;;;;;;;;;4166070;34;20125;-56
2021/03/15 01:35:52;;;;;;;5.50;3.08;;;;;;;;;;4178465;34;20122;-55
2021/03/15 01:38:18;;;;;;;6.47;2.92;;;;;;;;;;4178790;34;20137;-55
2021/03/15 01:40:44;;;;;;;6.05;2.90;;;;;;;;;;4178537;34;20113;-55
2021/03/15 01:43:10;;;;;;;5.90;3.25;;;;;;;;;;4178534;34;20121;-56
2021/03/15 01:45:36;;;;;;;6.90;3.00;;;;;;;;;;4178601;34;20142;-54
2021/03/15 01:48:03;;;;;;;5.57;3.00;;;;;;;;;;4178820;34;20098;-56
2021/03/15 01:50:29;;;;;;;3.65;2.75;;;;;;;;;;4178576;34;20528;-54
2021/03/15 01:52:55;;;;;;;4.90;3.00;;;;;;;;;;4178548;34;20214;-56
2021/03/15 01:55:22;;;;;;;3.60;2.47;;;;;;;;;;4165817;34;20190;-55
2021/03/15 01:57:47;;;;;;;4.90;3.30;;;;;;;;;;4178511;34;20141;-56
2021/03/15 02:00:15;;;;;;;5.70;3.70;;;;;;;;;;4166130;34;20144;-57
2021/03/15 02:02:44;;;;;;;6.55;3.20;;;;;;;;;;4178301;34;20518;-56
2021/03/15 02:05:11;;;;;;;5.60;3.20;;;;;;;;;;4165993;34;20106;-53
2021/03/15 02:07:37;;;;;;;4.97;3.70;;;;;;;;;;4178192;34;20094;-55
2021/03/15 02:10:04;;;;;;;5.70;3.25;;;;;;;;;;4178680;34;20125;-53
2021/03/15 02:13:08;;;;;;;5.90;3.53;;;;;;;;;;4178116;34;20176;-53
2021/03/15 02:15:36;;;;;;;5.57;3.47;;;;;;;;;;4178204;34;20177;-55
2021/03/15 02:18:32;;;;;;;4.82;3.65;;;;;;;;;;4178344;34;20103;-52
2021/03/15 02:21:25;;;;;;;6.43;3.12;;;;;;;;;;4165850;34;20505;-55
2021/03/15 02:23:59;;;;;;;7.32;3.60;;;;;;;;;;4165033;34;20118;-56
2021/03/15 02:27:03;;;;;;;7.40;3.58;;;;;;;;;;4165402;34;20111;-55
2021/03/15 02:29:47;;;;;;;9.00;3.33;;;;;;;;;;4178369;34;20117;-55
2021/03/15 02:32:46;;;;;;;6.22;3.50;;;;;;;;;;4178139;34;20211;-56
2021/03/15 02:35:14;;;;;;;6.40;3.42;;;;;;;;;;4165413;34;20114;-56
2021/03/15 02:38:06;;;;;;;4.95;3.42;;;;;;;;;;4165585;34;20479;-56
2021/03/15 02:40:44;;;;;;;8.43;3.35;;;;;;;;;;4176655;34;20208;-57
2021/03/15 02:43:36;;;;;;;6.90;3.50;;;;;;;;;;4178184;34;20118;-57
2021/03/15 02:46:03;;;;;;;11.90;3.67;;;;;;;;;;4162568;34;20514;-56
2021/03/15 02:48:29;;;;;;;7.37;4.28;;;;;;;;;;4178386;34;20100;-56
2021/03/15 02:50:55;;;;;;;6.60;3.53;;;;;;;;;;4165094;34;20209;-56
2021/03/15 02:53:21;;;;;;;8.38;3.12;;;;;;;;;;4165368;34;20549;-57
2021/03/15 02:55:48;;;;;;;5.37;2.70;;;;;;;;;;4153695;34;20126;-58
2021/03/15 02:58:14;;;;;;;4.55;2.60;;;;;;;;;;4165628;34;20520;-57
2021/03/15 03:00:41;;;;;;;4.78;2.30;;;;;;;;;;4154204;34;20106;-56
2021/03/15 03:03:07;;;;;;;9.43;3.12;;;;;;;;;;4165332;34;20126;-56
2021/03/15 03:05:33;;;;;;;5.93;3.40;;;;;;;;;;4177525;34;20145;-56
2021/03/15 03:07:59;;;;;;;4.82;3.30;;;;;;;;;;4165021;34;20270;-56
2021/03/15 03:10:25;;;;;;;7.57;3.40;;;;;;;;;;4177856;34;20102;-57
2021/03/15 03:12:51;;;;;;;7.62;3.67;;;;;;;;;;4177705;34;20099;-56
2021/03/15 03:15:20;;;;;;;8.70;3.10;;;;;;;;;;4177764;34;20098;-56
2021/03/15 03:17:46;;;;;;;8.63;3.45;;;;;;;;;;4177693;34;20134;-55
2021/03/15 03:20:13;;;;;;;5.60;3.50;;;;;;;;;;4165068;34;20537;-56
2021/03/15 03:22:41;;;;;;;4.60;3.20;;;;;;;;;;4164950;34;20117;-57
2021/03/15 03:25:09;;;;;;;7.00;3.90;;;;;;;;;;4177565;34;20206;-56
2021/03/15 03:27:35;;;;;;;10.68;3.97;;;;;;;;;;4164876;34;20107;-51
2021/03/15 03:30:01;;;;;;;6.82;3.80;;;;;;;;;;4165017;34;20183;-50
2021/03/15 03:32:27;;;;;;;7.72;3.42;;;;;;;;;;4177511;34;20146;-54
2021/03/15 03:34:54;;;;;;;8.18;4.20;;;;;;;;;;4164766;34;20213;-56
2021/03/15 03:37:19;;;;;;;9.35;3.65;;;;;;;;;;4164365;34;20106;-55
2021/03/15 03:39:45;;;;;;;6.45;3.50;;;;;;;;;;4165266;34;20141;-54
2021/03/15 03:42:14;;;;;;;6.97;3.50;;;;;;;;;;4177378;34;20117;-53
2021/03/15 03:44:40;;;;;;;7.40;3.90;;;;;;;;;;4177657;34;20141;-56
2021/03/15 03:47:06;;;;;;;7.70;3.70;;;;;;;;;;4177155;34;20146;-57
2021/03/15 03:49:32;;;;;;;5.35;3.53;;;;;;;;;;4176074;34;20558;-58
2021/03/15 03:52:00;;;;;;;6.45;3.25;;;;;;;;;;4176110;34;20116;-56
2021/03/15 03:54:40;;;;;;;5.28;3.28;;;;;;;;;;4164806;34;20126;-53
2021/03/15 03:57:09;;;;;;;6.40;3.75;;;;;;;;;;4164700;34;20133;-54
2021/03/15 03:59:35;;;;;;;6.15;3.83;;;;;;;;;;4165028;34;20113;-54
2021/03/15 04:02:02;;;;;;;8.40;3.95;;;;;;;;;;4164751;34;20133;-55
2021/03/15 04:04:33;;;;;;;5.43;3.42;;;;;;;;;;4177503;34;20142;-56
2021/03/15 04:06:59;;;;;;;5.85;3.15;;;;;;;;;;4164022;34;20233;-56
2021/03/15 04:09:31;;;;;;;6.15;3.12;;;;;;;;;;4176269;34;20149;-54
2021/03/15 04:12:10;;;;;;;5.47;3.72;;;;;;;;;;4175838;34;20105;-57
2021/03/15 04:14:41;;;;;;;5.43;3.33;;;;;;;;;;4177507;34;20215;-56
2021/03/15 04:17:09;;;;;;;7.87;3.33;;;;;;;;;;4164473;34;20298;-54
2021/03/15 04:19:38;;;;;;;6.15;3.83;;;;;;;;;;4164735;34;20446;-54
2021/03/15 04:22:09;;;;;;;5.95;3.60;;;;;;;;;;4163855;34;20132;-54
2021/03/15 04:24:36;;;;;;;4.72;3.28;;;;;;;;;;4177080;34;20148;-56
2021/03/15 04:27:03;;;;;;;8.02;3.55;;;;;;;;;;4164236;34;20097;-54
2021/03/15 04:29:29;;;;;;;5.80;3.42;;;;;;;;;;4164247;34;20196;-54
2021/03/15 04:31:55;;;;;;;6.03;3.65;;;;;;;;;;4164054;34;20553;-56
2021/03/15 04:34:22;;;;;;;7.05;4.87;;;;;;;;;;4164356;34;20541;-56
2021/03/15 04:36:49;;;;;;;7.50;3.92;;;;;;;;;;4163851;34;20123;-55
2021/03/15 04:39:15;;;;;;;7.28;3.85;;;;;;;;;;4164636;34;20098;-56
2021/03/15 04:41:41;;;;;;;5.35;3.20;;;;;;;;;;4152861;34;20201;-56
2021/03/15 04:44:08;;;;;;;5.82;3.47;;;;;;;;;;4176938;34;20091;-55
2021/03/15 04:46:34;;;;;;;9.68;3.58;;;;;;;;;;4163334;34;20118;-54
2021/03/15 04:49:06;;;;;;;11.02;3.50;;;;;;;;;;4164490;34;20094;-56
2021/03/15 04:51:32;;;;;;;8.70;3.72;;;;;;;;;;4164772;34;20098;-54
2021/03/15 04:53:58;;;;;;;8.52;3.70;;;;;;;;;;4176690;34;20095;-57
2021/03/15 04:56:24;;;;;;;5.70;4.00;;;;;;;;;;4152265;34;20107;-55
2021/03/15 04:58:50;;;;;;;5.35;3.90;;;;;;;;;;4164086;34;20451;-56
2021/03/15 05:01:16;;;;;;;10.35;4.07;;;;;;;;;;4163899;34;20099;-54
2021/03/15 05:03:42;;;;;;;7.72;5.03;;;;;;;;;;4164155;34;20189;-56
2021/03/15 05:06:08;;;;;;;10.07;4.72;;;;;;;;;;4163220;34;20541;-57
2021/03/15 05:08:36;;;;;;;9.25;3.90;;;;;;;;;;4175201;34;20090;-56
2021/03/15 05:11:02;;;;;;;5.62;3.58;;;;;;;;;;4176266;34;20122;-54
2021/03/15 05:13:29;;;;;;;5.60;3.80;;;;;;;;;;4176538;34;20130;-56
2021/03/15 05:15:56;;;;;;;5.47;3.60;;;;;;;;;;4163892;34;20099;-56
2021/03/15 05:18:23;;;;;;;6.87;4.43;;;;;;;;;;4163683;34;20133;-55
2021/03/15 05:20:49;;;;;;;8.65;4.07;;;;;;;;;;4176546;34;20110;-54
2021/03/15 05:23:15;;;;;;;8.07;4.05;;;;;;;;;;4163762;34;20122;-56
2021/03/15 05:25:44;;;;;;;9.73;4.25;;;;;;;;;;4163557;34;20231;-57
2021/03/15 05:28:10;;;;;;;6.62;3.42;;;;;;;;;;4163496;34;20125;-59
2021/03/15 05:30:36;;;;;;;11.38;4.20;;;;;;;;;;4176338;34;20186;-58
2021/03/15 05:33:03;;;;;;;9.52;3.28;;;;;;;;;;4152476;34;20230;-58
2021/03/15 05:35:29;;;;;;;9.60;3.75;;;;;;;;;;4163896;34;20437;-58
2021/03/15 05:37:55;;;;;;;11.07;3.65;;;;;;;;;;4163374;34;20207;-57
2021/03/15 05:40:22;;;;;;;10.18;3.80;;;;;;;;;;4163626;34;20149;-57
2021/03/15 05:42:58;;;;;;;8.30;3.83;;;;;;;;;;4163516;34;20121;-58
2021/03/15 05:45:26;;;;;;;7.05;3.90;;;;;;;;;;4176323;34;20131;-57
2021/03/15 05:48:14;;;;;;;7.20;3.60;;;;;;;;;;4163232;34;20127;-58
2021/03/15 05:51:20;;;;;;;7.43;3.87;;;;;;;;;;4176394;34;20454;-58
2021/03/15 05:53:58;;;;;;;13.13;5.45;;;;;;;;;;4153363;34;20519;-56
2021/03/15 05:56:45;;;;;;;12.45;7.20;;;;;;;;;;4166421;34;20296;-58
2021/03/15 05:59:38;;;;;;;8.55;4.87;;;;;;;;;;4176282;34;20098;-58
2021/03/15 06:02:22;;;;;;;8.98;4.05;;;;;;;;;;4167328;34;20130;-58
2021/03/15 06:05:13;;;;;;;10.00;3.50;;;;;;;;;;4178397;34;20098;-57
2021/03/15 06:07:39;;;;;;;12.25;4.00;;;;;;;;;;4177496;34;20166;-56
2021/03/15 06:10:09;;;;;;;9.88;4.53;;;;;;;;;;4165728;34;20197;-57
2021/03/15 06:12:56;;;;;;;9.32;4.45;;;;;;;;;;4178281;34;20206;-58
2021/03/15 06:15:47;;;;;;;13.98;4.37;;;;;;;;;;4178144;34;20638;-57
2021/03/15 06:18:14;;;;;;;7.35;3.47;;;;;;;;;;4167304;34;20109;-54
2021/03/15 06:20:42;;;;;;;12.30;3.37;;;;;;;;;;4178216;34;20123;-58
2021/03/15 06:23:08;;;;;;;9.65;3.50;;;;;;;;;;4178057;34;20106;-59
2021/03/15 06:25:34;;;;;;;8.88;3.42;;;;;;;;;;4178116;34;20522;-58
2021/03/15 06:28:01;;;;;;;9.02;3.60;;;;;;;;;;4178047;34;20122;-57
2021/03/15 06:30:27;;;;;;;10.93;4.30;;;;;;;;;;4178260;34;20121;-57
2021/03/15 06:32:55;;;;;;;8.60;3.42;;;;;;;;;;4177763;34;20090;-57
2021/03/15 06:35:23;;;;;;;9.10;3.47;;;;;;;;;;4178082;34;20124;-57
2021/03/15 06:37:49;;;;;;;8.88;3.67;;;;;;;;;;4177840;34;20113;-59
2021/03/15 06:40:15;;;;;;;6.10;3.28;;;;;;;;;;4177892;34;20182;-58
2021/03/15 06:42:41;;;;;;;7.45;3.80;;;;;;;;;;4165167;34;20106;-58
2021/03/15 06:45:19;;;;;;;7.10;3.42;;;;;;;;;;4177898;34;20118;-56
2021/03/15 06:47:45;;;;;;;6.45;3.55;;;;;;;;;;4177996;34;20099;-54
2021/03/15 06:50:12;;;;;;;11.35;4.28;;;;;;;;;;4177938;34;20114;-55
2021/03/15 06:53:07;;;;;;;6.50;3.33;;;;;;;;;;4165212;34;20210;-57
2021/03/15 06:55:36;;;;;;;12.98;3.90;;;;;;;;;;4171528;34;20118;-56
2021/03/15 06:58:22;;;;;;;9.60;3.22;;;;;;;;;;4177778;34;20182;-55
2021/03/15 07:01:18;;;;;;;6.25;3.83;;;;;;;;;;4164962;34;20594;-55
2021/03/15 07:03:45;;;;;;;9.38;3.42;;;;;;;;;;4175014;34;20126;-56
2021/03/15 07:06:11;;;;;;;8.50;3.67;;;;;;;;;;4177459;34;20679;-52
2021/03/15 07:08:37;;;;;;;13.23;3.90;;;;;;;;;;4177554;34;20128;-54
2021/03/15 07:11:03;;;;;;;4.55;3.25;;;;;;;;;;4175815;34;20087;-56
2021/03/15 07:13:39;;;;;;;5.35;3.65;;;;;;;;;;4177942;34;20439;-56
2021/03/15 07:16:05;;;;;;;4.35;3.15;;;;;;;;;;4177675;34;20528;-56
2021/03/15 07:18:35;;;;;;;9.48;3.65;;;;;;;;;;4164873;34;20203;-57
2021/03/15 07:21:02;;;;;;;5.28;2.97;;;;;;;;;;4177434;34;20126;-58
2021/03/15 07:23:41;;;;;;;9.52;4.35;;;;;;;;;;4177585;34;20539;-57
2021/03/15 07:26:18;;;;;;;9.77;3.55;;;;;;;;;;4177697;34;20146;-57
2021/03/15 07:28:45;;;;;;;5.40;3.45;;;;;;;;;;4177713;34;20126;-58
2021/03/15 07:31:21;;;;;;;4.85;3.12;;;;;;;;;;4177658;34;20213;-58
2021/03/15 07:34:08;;;;;;;7.78;3.58;;;;;;;;;;4177551;34;20121;-57
2021/03/15 07:36:45;;;;;;;7.03;3.65;;;;;;;;;;4166183;34;20134;-58
2021/03/15 07:39:11;;;;;;;12.65;3.70;;;;;;;;;;4177392;34;20101;-59
2021/03/15 07:41:37;;;;;;;7.80;3.80;;;;;;;;;;4176536;34;20114;-59
2021/03/15 07:44:23;;;;;;;7.07;3.78;;;;;;;;;;4177486;34;20209;-59
2021/03/15 07:46:53;;;;;;;6.40;3.28;;;;;;;;;;4172071;34;20283;-58
2021/03/15 07:49:26;;;;;;;4.65;3.08;;;;;;;;;;4177171;34;20146;-58
2021/03/15 07:51:53;;;;;;;7.53;3.42;;;;;;;;;;4176847;34;20221;-58
2021/03/15 07:54:24;;;;;;;5.07;3.15;;;;;;;;;;4177366;34;20149;-59
2021/03/15 07:57:12;;;;;;;6.87;3.80;;;;;;;;;;4177129;34;20122;-58
2021/03/15 07:59:39;;;;;;;6.65;3.62;;;;;;;;;;4177215;34;20459;-58
2021/03/15 08:02:05;;;;;;;7.78;3.60;;;;;;;;;;4177032;34;20581;-57
2021/03/15 08:04:31;;;;;;;4.72;3.80;;;;;;;;;;4177472;34;20098;-57
2021/03/15 08:06:57;;;;;;;4.62;3.42;;;;;;;;;;4176585;34;20491;-59
2021/03/15 08:09:23;;;;;;;6.68;3.65;;;;;;;;;;4164394;34;20202;-58
2021/03/15 08:11:49;;;;;;;5.68;4.00;;;;;;;;;;4175559;34;20118;-58
2021/03/15 08:14:15;;;;;;;6.47;3.60;;;;;;;;;;4164315;34;20103;-56
2021/03/15 08:16:41;;;;;;;5.53;3.78;;;;;;;;;;4175504;34;20502;-57
2021/03/15 08:19:08;;;;;;;6.60;4.45;;;;;;;;;;4164542;34;20107;-58
2021/03/15 08:21:36;;;;;;;6.50;3.62;;;;;;;;;;4163250;34;20114;-56
2021/03/15 08:24:02;;;;;;;7.28;4.85;;;;;;;;;;4164592;34;20098;-58
2021/03/15 08:26:29;;;;;;;8.00;3.60;;;;;;;;;;4164304;34;20470;-58
2021/03/15 08:28:58;;;;;;;5.28;3.83;;;;;;;;;;4164633;34;20398;-59
2021/03/15 08:31:32;;;;;;;5.43;3.67;;;;;;;;;;4163902;34;20115;-58
2021/03/15 08:33:58;;;;;;;7.35;4.25;;;;;;;;;;4176850;34;20103;-59
2021/03/15 08:36:24;;;;;;;5.53;4.20;;;;;;;;;;4175469;34;20098;-59
2021/03/15 08:38:50;;;;;;;6.37;4.47;;;;;;;;;;4164314;34;20210;-58
2021/03/15 08:41:23;;;;;;;5.22;4.10;;;;;;;;;;4176060;34;20145;-59
2021/03/15 08:43:50;;;;;;;7.22;4.30;;;;;;;;;;4176899;34;20526;-59
2021/03/15 08:46:19;;;;;;;8.85;4.40;;;;;;;;;;4176667;34;20230;-59
2021/03/15 08:48:51;;;;;;;8.30;4.32;;;;;;;;;;4176918;34;20103;-59
2021/03/15 08:51:46;;;;;;;8.85;4.62;;;;;;;;;;4176645;34;20114;-59
2021/03/15 08:54:13;;;;;;;6.25;4.62;;;;;;;;;;4174047;34;20116;-60
2021/03/15 08:56:47;;;;;;;6.43;3.85;;;;;;;;;;4161613;34;20543;-59
2021/03/15 08:59:13;;;;;;;6.65;4.55;;;;;;;;;;4175671;34;20111;-58
2021/03/15 09:01:57;;;;;;;8.25;4.47;;;;;;;;;;4162264;34;20199;-59
2021/03/15 09:04:43;;;;;;;5.75;4.30;;;;;;;;;;4175125;34;20200;-58
2021/03/15 09:07:32;;;;;;;9.48;5.20;;;;;;;;;;4176406;34;20226;-58
2021/03/15 09:10:25;;;;;;;8.57;5.43;;;;;;;;;;4176751;34;20115;-61
2021/03/15 09:13:24;;;;;;;7.03;5.57;;;;;;;;;;4175245;34;20101;-60
2021/03/15 09:15:54;;;;;;;7.03;5.50;;;;;;;;;;4170318;34;20110;-59
2021/03/15 09:18:43;;;;;;;6.50;5.75;;;;;;;;;;4152916;34;20221;-59
2021/03/15 09:21:27;;;;;;;10.35;7.57;;;;;;;;;;4176036;34;20126;-60
2021/03/15 09:23:55;;;;;;;8.00;6.50;;;;;;;;;;4176677;34;20125;-62
2021/03/15 09:26:24;;;;;;;8.88;6.75;;;;;;;;;;4174994;34;20462;-60
2021/03/15 09:28:54;;;;;;;6.35;5.70;;;;;;;;;;4176735;34;20114;-59
2021/03/15 09:31:20;;;;;;;9.80;7.03;;;;;;;;;;4176116;34;20142;-59
2021/03/15 09:33:46;;;;;;;9.40;7.32;;;;;;;;;;4177693;34;20522;-59
2021/03/15 09:36:12;;;;;;;9.45;6.82;;;;;;;;;;4178393;34;20111;-56
2021/03/15 09:38:38;;;;;;;7.47;5.75;;;;;;;;;;4165990;34;20140;-61
2021/03/15 09:41:05;;;;;;;7.70;6.32;;;;;;;;;;4178230;34;20126;-59
2021/03/15 09:43:31;;;;;;;7.37;6.18;;;;;;;;;;4178710;34;20520;-58
2021/03/15 09:46:02;;;;;;;8.10;6.43;;;;;;;;;;4178257;34;20126;-59
2021/03/15 09:48:29;;;;;;;6.87;5.72;;;;;;;;;;4178640;34;20099;-59
2021/03/15 09:51:03;;;;;;;8.45;6.43;;;;;;;;;;4178237;34;20203;-57
2021/03/15 09:53:29;;;;;;;7.00;5.60;;;;;;;;;;4181894;34;20129;-58
2021/03/15 09:56:02;;;;;;;8.30;5.90;;;;;;;;;;4178247;34;20134;-58
2021/03/15 09:58:28;;;;;;;7.60;5.72;;;;;;;;;;4178839;34;20110;-58
2021/03/15 10:00:54;;;;;;;9.68;6.40;;;;;;;;;;4178285;34;20296;-58
2021/03/15 10:03:21;;;;;;;8.35;6.65;;;;;;;;;;4178320;34;20098;-60
2021/03/15 10:05:48;;;;;;;7.75;5.97;;;;;;;;;;4178060;34;20126;-60
2021/03/15 10:08:14;;;;;;;9.75;8.00;;;;;;;;;;4178255;34;20115;-60
2021/03/15 10:10:40;;;;;;;10.00;7.35;;;;;;;;;;4178450;34;20214;-64
2021/03/15 10:13:07;;;;;;;11.40;6.65;;;;;;;;;;4178186;34;20196;-62
2021/03/15 10:15:33;;;;;;;8.50;6.53;;;;;;;;;;4178340;34;20559;-60
2021/03/15 10:17:59;;;;;;;9.77;5.40;;;;;;;;;;4178295;34;20131;-60
2021/03/15 10:20:29;;;;;;;6.45;5.53;;;;;;;;;;4178471;34;20137;-60
2021/03/15 10:22:55;;;;;;;10.13;6.43;;;;;;;;;;4177916;34;20218;-59
2021/03/15 10:25:21;;;;;;;7.10;6.40;;;;;;;;;;4178160;34;20126;-60
2021/03/15 10:27:57;;;;;;;7.30;6.60;;;;;;;;;;4178188;34;20126;-58
2021/03/15 10:30:31;;;;;;;8.82;6.40;;;;;;;;;;4178488;34;20129;-60
2021/03/15 10:32:58;;;;;;;6.28;5.35;;;;;;;;;;4165481;34;20115;-60
2021/03/15 10:35:29;;;;;;;9.80;6.07;;;;;;;;;;4178034;34;20218;-59
2021/03/15 10:37:57;;;;;;;8.50;6.05;;;;;;;;;;4165197;34;20099;-58
2021/03/15 10:40:24;;;;;;;8.25;6.62;;;;;;;;;;4178274;34;20110;-61
2021/03/15 10:42:50;;;;;;;6.82;6.12;;;;;;;;;;4177961;34;20103;-60
2021/03/15 10:45:16;;;;;;;8.32;5.53;;;;;;;;;;4177674;34;20210;-57
2021/03/15 10:47:42;;;;;;;10.20;5.93;;;;;;;;;;4178133;34;20098;-57
2021/03/15 10:50:31;;;;;;;8.95;5.57;;;;;;;;;;4177963;34;20202;-60
2021/03/15 10:52:57;;;;;;;7.45;5.12;;;;;;;;;;4179423;34;20133;-58
2021/03/15 10:55:34;;;;;;;6.85;5.57;;;;;;;;;;4177960;34;20114;-58
2021/03/15 10:58:09;;;;;;;9.65;5.80;;;;;;;;;;4177900;34;20437;-57
2021/03/15 11:00:40;;;;;;;6.80;5.82;;;;;;;;;;4177817;34;20150;-57
2021/03/15 11:03:06;;;;;;;8.43;6.85;;;;;;;;;;4177720;34;20198;-59
2021/03/15 11:05:32;;;;;;;7.82;5.50;;;;;;;;;;4177863;34;20122;-58
2021/03/15 11:08:38;;;;;;;8.65;5.07;;;;;;;;;;4167398;34;20311;-58
2021/03/15 11:11:17;;;;;;;6.70;5.07;;;;;;;;;;4178034;34;20514;-59
2021/03/15 11:13:45;;;;;;;8.50;5.30;;;;;;;;;;4177757;34;20091;-58
2021/03/15 11:16:17;;;;;;;7.40;5.03;;;;;;;;;;4177743;34;20229;-59
2021/03/15 11:18:43;;;;;;;5.65;4.93;;;;;;;;;;4177845;34;20086;-57
2021/03/15 11:21:10;;;;;;;7.15;4.35;;;;;;;;;;4177393;34;20111;-59
2021/03/15 11:23:37;;;;;;;6.05;5.15;;;;;;;;;;4177590;34;20206;-60
2021/03/15 11:26:08;;;;;;;10.57;7.47;;;;;;;;;;4177904;34;20468;-60
2021/03/15 11:28:36;;;;;;;12.77;9.43;;;;;;;;;;4177884;34;20098;-59
2021/03/15 11:31:03;;;;;;;12.77;9.15;;;;;;;;;;4177832;34;20190;-60
2021/03/15 11:33:29;;;;;;;13.55;8.45;;;;;;;;;;4177616;34;20114;-60
2021/03/15 11:35:56;;;;;;;9.60;6.30;;;;;;;;;;4177445;34;20177;-59
2021/03/15 11:38:22;;;;;;;6.68;4.45;;;;;;;;;;4177665;34;20213;-60
2021/03/15 11:40:48;;;;;;;5.50;4.12;;;;;;;;;;4177527;34;20203;-58
2021/03/15 11:43:14;;;;;;;10.55;3.97;;;;;;;;;;4177522;34;20546;-60
2021/03/15 11:45:40;;;;;;;5.22;3.40;;;;;;;;;;4177752;34;20144;-59
2021/03/15 11:48:08;;;;;;;9.20;6.62;;;;;;;;;;4177830;34;20119;-60
2021/03/15 11:50:35;;;;;;;8.57;3.85;;;;;;;;;;4177577;34;20516;-59
2021/03/15 11:53:02;;;;;;;6.68;2.65;;;;;;;;;;4177017;34;20218;-61
2021/03/15 11:55:28;;;;;;;6.90;3.10;;;;;;;;;;4177584;34;20784;-58
2021/03/15 11:57:54;;;;;;;5.28;3.50;;;;;;;;;;4176565;34;20187;-58
2021/03/15 12:00:20;;;;;;;5.37;3.83;;;;;;;;;;4177303;34;20245;-58
2021/03/15 12:02:47;;;;;;;4.22;3.12;;;;;;;;;;4177354;34;20090;-59
2021/03/15 12:05:13;;;;;;;5.05;3.08;;;;;;;;;;4177113;34;20537;-59
2021/03/15 12:07:39;;;;;;;5.00;3.30;;;;;;;;;;4164089;34;20180;-58
2021/03/15 12:10:07;;;;;;;4.93;3.40;;;;;;;;;;4177204;34;20217;-59
2021/03/15 12:12:33;;;;;;;7.18;3.30;;;;;;;;;;4177249;34;20186;-60
2021/03/15 12:14:59;;;;;;;3.17;2.80;;;;;;;;;;4177164;34;20104;-58
2021/03/15 12:17:25;;;;;;;4.68;3.47;;;;;;;;;;4177025;34;20103;-59
2021/03/15 12:19:51;;;;;;;12.23;3.50;;;;;;;;;;4177102;34;20472;-59
2021/03/15 12:22:17;;;;;;;4.30;3.10;;;;;;;;;;4176848;34;20221;-59
2021/03/15 12:24:43;;;;;;;3.78;2.85;;;;;;;;;;4176894;34;20515;-59
2021/03/15 12:27:09;;;;;;;6.18;4.15;;;;;;;;;;4176778;34;20130;-59
2021/03/15 12:29:37;;;;;;;4.97;3.28;;;;;;;;;;4177115;34;20110;-59
2021/03/15 12:32:03;;;;;;;3.87;2.83;;;;;;;;;;4177114;34;20118;-60
2021/03/15 12:34:29;;;;;;;7.60;3.37;;;;;;;;;;4176646;34;20110;-58
2021/03/15 12:36:55;;;;;;;4.65;3.10;;;;;;;;;;4177278;34;20106;-58
2021/03/15 12:39:21;;;;;;;3.20;2.58;;;;;;;;;;4177007;34;20529;-58
2021/03/15 12:41:47;;;;;;;4.45;2.90;;;;;;;;;;4176687;34;20132;-57
2021/03/15 12:44:12;;;;;;;4.78;3.03;;;;;;;;;;4176887;34;20207;-58
2021/03/15 12:46:41;;;;;;;4.45;3.12;;;;;;;;;;4176552;34;20143;-59
2021/03/15 12:49:07;;;;;;;3.83;3.12;;;;;;;;;;4164595;34;20459;-57
2021/03/15 12:51:33;;;;;;;5.22;3.30;;;;;;;;;;4176720;34;20113;-58
2021/03/15 12:54:02;;;;;;;6.37;3.37;;;;;;;;;;4177010;34;20122;-58
2021/03/15 12:56:28;;;;;;;5.15;3.17;;;;;;;;;;4176573;34;20206;-57
2021/03/15 12:58:54;;;;;;;4.50;3.83;;;;;;;;;;4176563;34;20136;-58
2021/03/15 13:01:19;;;;;;;3.62;3.22;;;;;;;;;;4176665;34;20286;-58
2021/03/15 13:03:46;;;;;;;6.12;3.47;;;;;;;;;;4176706;34;20132;-58
2021/03/15 13:06:11;;;;;;;5.05;3.45;;;;;;;;;;4176158;34;20115;-60
2021/03/15 13:08:38;;;;;;;4.12;3.10;;;;;;;;;;4179027;34;20217;-60
2021/03/15 13:11:04;;;;;;;5.28;3.08;;;;;;;;;;4181134;34;20494;-60
2021/03/15 13:13:30;;;;;;;4.72;3.25;;;;;;;;;;4181234;34;20213;-60
2021/03/15 13:15:56;;;;;;;4.97;3.37;;;;;;;;;;4181106;34;20091;-58
2021/03/15 13:18:23;;;;;;;8.23;3.25;;;;;;;;;;4181430;34;20206;-58
2021/03/15 13:20:49;;;;;;;3.62;2.97;;;;;;;;;;4180680;34;20141;-59
2021/03/15 13:23:15;;;;;;;6.90;3.28;;;;;;;;;;4181458;34;20117;-59
2021/03/15 13:25:41;;;;;;;4.47;3.03;;;;;;;;;;4180872;34;20133;-58
2021/03/15 13:28:07;;;;;;;3.17;2.80;;;;;;;;;;4181490;34;20123;-61
2021/03/15 13:30:33;;;;;;;4.75;3.00;;;;;;;;;;4180961;34;20136;-60
2021/03/15 13:32:59;;;;;;;3.75;2.85;;;;;;;;;;4181303;34;20098;-60
2021/03/15 13:35:25;;;;;;;6.10;2.97;;;;;;;;;;4181055;34;20209;-58
2021/03/15 13:37:51;;;;;;;4.50;3.17;;;;;;;;;;4181032;34;20313;-58
2021/03/15 13:40:17;;;;;;;3.72;3.15;;;;;;;;;;4181387;34;20114;-58
2021/03/15 13:42:43;;;;;;;4.25;3.33;;;;;;;;;;4180764;34;20169;-57
2021/03/15 13:45:09;;;;;;;5.90;3.10;;;;;;;;;;4181095;34;20201;-58
2021/03/15 13:47:35;;;;;;;4.72;3.30;;;;;;;;;;4180807;34;20099;-59
2021/03/15 13:50:01;;;;;;;5.35;3.00;;;;;;;;;;4181055;34;20129;-58
2021/03/15 13:52:27;;;;;;;5.12;3.00;;;;;;;;;;4180728;34;20087;-57
2021/03/15 13:54:53;;;;;;;3.60;2.62;;;;;;;;;;4180976;34;20129;-58
2021/03/15 13:57:19;;;;;;;3.30;2.37;;;;;;;;;;4180521;34;20122;-58
2021/03/15 13:59:45;;;;;;;3.67;2.60;;;;;;;;;;4180758;34;20552;-59
2021/03/15 14:02:11;;;;;;;5.22;3.08;;;;;;;;;;4180195;34;20199;-58
2021/03/15 14:04:37;;;;;;;5.60;2.83;;;;;;;;;;4180769;34;20099;-58
2021/03/15 14:07:02;;;;;;;3.83;2.78;;;;;;;;;;4180187;34;20167;-58
2021/03/15 14:09:29;;;;;;;4.47;3.03;;;;;;;;;;4180760;34;20126;-60
2021/03/15 14:11:55;;;;;;;5.22;2.95;;;;;;;;;;4180403;34;20114;-59
2021/03/15 14:14:21;;;;;;;5.97;3.35;;;;;;;;;;4180706;34;20230;-59
2021/03/15 14:16:48;;;;;;;4.22;3.37;;;;;;;;;;4180437;34;20126;-60
2021/03/15 14:19:15;;;;;;;3.45;2.97;;;;;;;;;;4179419;34;20118;-60
2021/03/15 14:21:42;;;;;;;3.67;2.95;;;;;;;;;;4177281;34;20126;-60
2021/03/15 14:24:08;;;;;;;5.03;3.50;;;;;;;;;;4178332;34;20098;-61
2021/03/15 14:26:34;;;;;;;5.90;3.15;;;;;;;;;;4165086;34;20105;-59
2021/03/15 14:29:04;;;;;;;4.90;3.53;;;;;;;;;;4178287;34;20110;-60
2021/03/15 14:31:30;;;;;;;4.90;3.25;;;;;;;;;;4177869;34;20114;-60
2021/03/15 14:33:56;;;;;;;4.35;3.28;;;;;;;;;;4178178;34;20097;-61
2021/03/15 14:36:22;;;;;;;7.62;3.42;;;;;;;;;;4177760;34;20113;-59
2021/03/15 14:38:48;;;;;;;5.57;3.20;;;;;;;;;;4178275;34;20118;-61
2021/03/15 14:41:14;;;;;;;5.97;3.22;;;;;;;;;;4177853;34;20156;-59
2021/03/15 14:43:40;;;;;;;4.57;3.28;;;;;;;;;;4165433;34;20126;-59
2021/03/15 14:46:06;;;;;;;5.10;3.53;;;;;;;;;;4177596;34;20126;-60
2021/03/15 14:48:32;;;;;;;6.00;3.58;;;;;;;;;;4178147;34;20405;-59
2021/03/15 14:50:58;;;;;;;5.07;3.80;;;;;;;;;;4177910;34;20102;-58
2021/03/15 14:53:24;;;;;;;6.75;4.10;;;;;;;;;;4178077;34;20118;-59
2021/03/15 14:55:50;;;;;;;8.00;3.92;;;;;;;;;;4177909;34;20119;-59
2021/03/15 14:58:16;;;;;;;4.45;2.85;;;;;;;;;;4177815;34;20109;-59
2021/03/15 15:00:42;;;;;;;7.78;3.65;;;;;;;;;;4177834;34;20145;-59